createdAt,value
2022-12-08T00:00:53.653Z,75.26
2022-12-08T00:03:23.966Z,75.44
2022-12-08T00:06:09.201Z,75.55
2022-12-08T00:08:51.629Z,75.49
2022-12-08T00:11:22.251Z,75.45
2022-12-08T00:13:52.328Z,75.25
2022-12-08T00:16:22.474Z,75.12
2022-12-08T00:18:52.697Z,75.16
2022-12-08T00:21:25.399Z,75.08
2022-12-08T00:23:57.940Z,75.58
2022-12-08T00:26:27.943Z,75.34
2022-12-08T00:28:58.075Z,75.18
2022-12-08T00:31:28.189Z,75.11
2022-12-08T00:33:58.395Z,75.53
2022-12-08T00:36:31.580Z,75.16
2022-12-08T00:39:04.310Z,75.21
2022-12-08T00:41:46.808Z,75.35
2022-12-08T00:44:19.179Z,75.69
2022-12-08T00:46:50.144Z,75.75
2022-12-08T00:49:20.739Z,75.26
2022-12-08T00:51:53.493Z,75.26
2022-12-08T00:54:26.305Z,75.71
2022-12-08T00:56:56.453Z,75.77
2022-12-08T00:59:27.008Z,75.36
2022-12-08T01:01:57.081Z,75.60
2022-12-08T01:04:27.301Z,75.49
2022-12-08T01:06:59.971Z,75.52
2022-12-08T01:09:30.005Z,75.63
2022-12-08T01:12:00.088Z,75.38
2022-12-08T01:14:30.212Z,75.33
2022-12-08T01:17:00.444Z,75.25
2022-12-08T01:19:31.107Z,75.16
2022-12-08T01:22:03.830Z,75.68
2022-12-08T01:24:36.000Z,75.42
2022-12-08T01:27:06.055Z,75.59
2022-12-08T01:29:36.275Z,75.80
2022-12-08T01:32:06.447Z,75.69
2022-12-08T01:34:36.458Z,75.32
2022-12-08T01:37:09.076Z,75.26
2022-12-08T01:39:40.983Z,75.57
2022-12-08T01:42:22.237Z,75.38
2022-12-08T01:45:17.031Z,75.98
2022-12-08T01:47:51.269Z,75.43
2022-12-08T01:50:23.292Z,75.94
2022-12-08T01:53:00.309Z,75.64
2022-12-08T01:55:36.440Z,75.65
2022-12-08T01:58:10.065Z,76.21
2022-12-08T02:00:40.080Z,75.91
2022-12-08T02:03:16.267Z,75.89
2022-12-08T02:05:47.595Z,75.64
2022-12-08T02:08:20.975Z,76.15
2022-12-08T02:10:54.889Z,75.90
2022-12-08T02:13:27.399Z,75.84
2022-12-08T02:16:05.720Z,75.63
2022-12-08T02:19:28.548Z,75.78
2022-12-08T02:21:54.259Z,76.13
2022-12-08T02:24:34.344Z,76.13
2022-12-08T02:27:28.975Z,75.98
2022-12-08T02:30:13.606Z,76.04
2022-12-08T02:33:12.561Z,75.66
2022-12-08T02:35:55.299Z,75.61
2022-12-08T02:38:40.547Z,76.02
2022-12-08T02:41:21.866Z,76.02
2022-12-08T02:43:59.614Z,76.02
2022-12-08T02:46:34.290Z,75.89
2022-12-08T02:49:05.387Z,76.14
2022-12-08T02:51:40.156Z,76.47
2022-12-08T02:54:10.367Z,76.49
2022-12-08T02:56:57.969Z,76.24
2022-12-08T02:59:50.874Z,76.67
2022-12-08T03:02:33.240Z,76.25
2022-12-08T03:05:10.392Z,76.44
2022-12-08T03:07:50.665Z,76.34
2022-12-08T03:10:26.046Z,76.47
2022-12-08T03:13:01.921Z,76.27
2022-12-08T03:15:34.813Z,76.22
2022-12-08T03:18:08.441Z,76.29
2022-12-08T03:20:40.049Z,76.07
2022-12-08T03:23:16.156Z,76.33
2022-12-08T03:25:51.640Z,75.86
2022-12-08T03:28:21.847Z,75.90
2022-12-08T03:30:58.445Z,75.98
2022-12-08T03:33:33.490Z,75.77
2022-12-08T03:36:07.612Z,75.72
2022-12-08T03:38:44.763Z,75.61
2022-12-08T03:41:21.324Z,75.81
2022-12-08T03:43:52.786Z,75.67
2022-12-08T03:48:55.334Z,75.72
2022-12-08T03:51:27.395Z,75.50
2022-12-08T03:54:00.994Z,75.33
2022-12-08T03:56:32.338Z,75.44
2022-12-08T03:59:02.786Z,75.44
2022-12-08T04:01:32.973Z,75.43
2022-12-08T04:04:03.143Z,75.47
2022-12-08T04:06:33.440Z,75.44
2022-12-08T04:09:06.130Z,75.48
2022-12-08T04:11:36.297Z,75.75
2022-12-08T04:14:06.523Z,75.78
2022-12-08T04:16:36.660Z,75.29
2022-12-08T04:19:06.935Z,75.45
2022-12-08T04:21:37.447Z,75.66
2022-12-08T04:24:10.728Z,75.81
2022-12-08T04:26:40.781Z,75.50
2022-12-08T04:29:10.878Z,75.70
2022-12-08T04:31:41.090Z,75.16
2022-12-08T04:34:11.931Z,75.12
2022-12-08T04:36:42.099Z,75.56
2022-12-08T04:39:14.764Z,75.27
2022-12-08T04:41:44.861Z,75.43
2022-12-08T04:44:15.035Z,75.19
2022-12-08T04:46:45.070Z,75.08
2022-12-08T04:49:15.173Z,74.96
2022-12-08T04:51:45.234Z,75.34
2022-12-08T04:54:17.853Z,75.30
2022-12-08T04:56:48.032Z,74.93
2022-12-08T04:59:18.116Z,74.93
2022-12-08T05:01:48.266Z,74.89
2022-12-08T05:04:18.454Z,74.54
2022-12-08T05:06:48.474Z,74.84
2022-12-08T05:09:21.167Z,74.55
2022-12-08T05:11:51.332Z,74.65
2022-12-08T05:14:22.309Z,74.51
2022-12-08T05:16:52.446Z,74.38
2022-12-08T05:19:24.820Z,74.29
2022-12-08T05:21:55.002Z,74.00
2022-12-08T05:24:27.964Z,73.84
2022-12-08T05:26:58.053Z,73.40
2022-12-08T05:29:28.613Z,73.89
2022-12-08T05:31:58.853Z,73.43
2022-12-08T05:34:29.227Z,73.80
2022-12-08T05:36:59.264Z,73.76
2022-12-08T05:39:32.108Z,73.35
2022-12-08T05:42:02.501Z,73.28
2022-12-08T05:44:32.720Z,73.62
2022-12-08T05:47:03.046Z,73.46
2022-12-08T05:49:33.220Z,73.37
2022-12-08T05:52:03.342Z,73.37
2022-12-08T05:54:35.977Z,73.23
2022-12-08T05:57:06.287Z,73.27
2022-12-08T05:59:37.203Z,73.77
2022-12-08T06:02:07.377Z,73.51
2022-12-08T06:04:37.479Z,73.60
2022-12-08T06:07:10.672Z,73.21
2022-12-08T06:09:47.496Z,73.02
2022-12-08T06:12:17.638Z,73.17
2022-12-08T06:14:48.811Z,73.00
2022-12-08T06:17:18.964Z,73.47
2022-12-08T06:19:49.040Z,73.45
2022-12-08T06:22:19.039Z,73.11
2022-12-08T06:24:51.801Z,73.24
2022-12-08T06:27:21.896Z,73.43
2022-12-08T06:29:51.992Z,73.20
2022-12-08T06:32:27.294Z,73.50
2022-12-08T06:34:57.724Z,73.36
2022-12-08T06:37:27.960Z,73.51
2022-12-08T06:40:01.259Z,73.21
2022-12-08T06:42:47.255Z,73.17
2022-12-08T06:45:19.424Z,73.11
2022-12-08T06:47:49.461Z,73.43
2022-12-08T06:50:19.524Z,72.77
2022-12-08T06:53:00.801Z,72.50
2022-12-08T06:58:27.575Z,72.29
2022-12-08T07:00:57.773Z,72.04
2022-12-08T07:03:27.876Z,72.47
2022-12-08T07:06:03.780Z,72.41
2022-12-08T07:08:35.159Z,72.18
2022-12-08T07:11:18.027Z,72.21
2022-12-08T07:13:49.465Z,71.99
2022-12-08T07:16:19.567Z,71.59
2022-12-08T07:18:49.785Z,71.43
2022-12-08T07:21:20.764Z,71.45
2022-12-08T07:23:57.330Z,71.38
2022-12-08T07:26:30.503Z,70.91
2022-12-08T07:29:00.713Z,71.09
2022-12-08T07:31:31.408Z,70.79
2022-12-08T07:34:01.931Z,70.41
2022-12-08T07:36:32.708Z,70.35
2022-12-08T07:39:02.884Z,70.43
2022-12-08T07:41:36.322Z,70.15
2022-12-08T07:44:07.148Z,69.88
2022-12-08T07:46:37.228Z,70.47
2022-12-08T07:49:07.452Z,70.31
2022-12-08T07:51:37.562Z,69.97
2022-12-08T07:54:07.825Z,69.93
2022-12-08T07:56:40.459Z,69.53
2022-12-08T07:59:10.585Z,69.90
2022-12-08T08:01:41.381Z,69.78
2022-12-08T08:04:14.515Z,69.83
2022-12-08T08:06:44.651Z,69.88
2022-12-08T08:09:15.389Z,69.76
2022-12-08T08:12:01.279Z,69.68
2022-12-08T08:14:38.583Z,69.92
2022-12-08T08:17:08.808Z,70.19
2022-12-08T08:19:39.193Z,70.52
2022-12-08T08:22:09.343Z,69.91
2022-12-08T08:24:44.638Z,69.53
2022-12-08T08:27:17.865Z,69.46
2022-12-08T08:29:48.207Z,69.50
2022-12-08T08:32:18.291Z,69.24
2022-12-08T08:34:48.397Z,68.99
2022-12-08T08:37:18.564Z,68.54
2022-12-08T08:39:48.858Z,69.41
2022-12-08T08:42:21.520Z,69.41
2022-12-08T08:44:52.927Z,69.59
2022-12-08T08:47:23.080Z,68.74
2022-12-08T08:49:53.224Z,68.92
2022-12-08T08:52:23.290Z,68.68
2022-12-08T08:54:53.433Z,68.22
2022-12-08T08:57:26.384Z,68.35
2022-12-08T08:59:56.787Z,68.25
2022-12-08T09:02:27.025Z,68.06
2022-12-08T09:04:57.214Z,68.04
2022-12-08T09:07:27.443Z,67.60
2022-12-08T09:10:01.849Z,67.95
2022-12-08T09:12:34.900Z,67.85
2022-12-08T09:15:04.928Z,67.29
2022-12-08T09:17:35.067Z,67.03
2022-12-08T09:20:05.595Z,66.71
2022-12-08T09:22:35.927Z,66.65
2022-12-08T09:25:06.452Z,66.10
2022-12-08T09:27:39.097Z,65.74
2022-12-08T09:30:11.022Z,65.53
2022-12-08T09:32:41.138Z,65.08
2022-12-08T09:35:11.755Z,64.48
2022-12-08T09:37:41.768Z,63.43
2022-12-08T09:40:18.414Z,63.19
2022-12-08T09:42:55.740Z,63.66
2022-12-08T09:45:29.543Z,63.72
2022-12-08T09:48:03.794Z,63.57
2022-12-08T09:50:38.060Z,63.51
2022-12-08T09:53:15.327Z,63.81
2022-12-08T09:55:49.720Z,64.10
2022-12-08T09:58:30.804Z,63.83
2022-12-08T10:01:02.157Z,62.88
2022-12-08T10:03:33.565Z,63.63
2022-12-08T10:06:10.722Z,63.80
2022-12-08T10:08:49.225Z,63.81
2022-12-08T10:11:27.244Z,63.57
2022-12-08T10:14:06.651Z,62.77
2022-12-08T10:16:42.189Z,62.91
2022-12-08T10:19:17.623Z,63.09
2022-12-08T10:21:48.406Z,62.54
2022-12-08T10:24:28.976Z,62.47
2022-12-08T10:26:59.662Z,62.73
2022-12-08T10:29:32.572Z,62.17
2022-12-08T10:32:03.318Z,61.27
2022-12-08T10:34:33.406Z,60.46
2022-12-08T10:37:03.492Z,60.96
2022-12-08T10:39:39.276Z,60.36
2022-12-08T10:42:22.199Z,60.58
2022-12-08T10:45:25.089Z,60.29
2022-12-08T10:48:02.789Z,59.84
2022-12-08T10:50:37.936Z,59.92
2022-12-08T10:53:16.229Z,59.27
2022-12-08T10:55:48.619Z,59.56
2022-12-08T10:58:30.438Z,58.67
2022-12-08T11:01:07.796Z,57.91
2022-12-08T11:03:40.494Z,58.61
2022-12-08T11:06:17.799Z,57.99
2022-12-08T11:08:52.085Z,64.08
2022-12-08T11:11:29.224Z,61.02
2022-12-08T11:13:59.659Z,57.21
2022-12-08T11:16:32.491Z,57.30
2022-12-08T11:19:08.362Z,56.56
2022-12-08T11:21:40.213Z,57.06
2022-12-08T11:24:25.368Z,56.97
2022-12-08T11:26:57.977Z,55.99
2022-12-08T11:29:29.112Z,55.07
2022-12-08T11:32:05.787Z,55.96
2022-12-08T11:34:41.771Z,55.87
2022-12-08T11:37:18.993Z,55.71
2022-12-08T11:39:53.263Z,55.74
2022-12-08T11:42:29.154Z,56.00
2022-12-08T11:45:02.211Z,55.64
2022-12-08T11:47:40.013Z,54.68
2022-12-08T11:50:22.989Z,54.75
2022-12-08T11:52:54.384Z,55.06
2022-12-08T11:55:37.460Z,54.19
2022-12-08T11:58:19.667Z,53.58
2022-12-08T12:00:49.904Z,53.91
2022-12-08T12:03:31.191Z,52.88
2022-12-08T12:09:21.289Z,52.35
2022-12-08T12:12:16.929Z,52.66
2022-12-08T12:15:16.020Z,52.70
2022-12-08T12:17:50.842Z,52.08
2022-12-08T12:20:28.910Z,52.24
2022-12-08T12:23:06.159Z,51.93
2022-12-08T12:25:38.649Z,52.08
2022-12-08T12:28:11.779Z,51.15
2022-12-08T12:31:00.794Z,50.92
2022-12-08T12:33:33.370Z,49.66
2022-12-08T12:36:10.404Z,50.25
2022-12-08T12:38:55.812Z,50.29
2022-12-08T12:41:28.882Z,51.01
2022-12-08T12:44:37.843Z,51.27
2022-12-08T12:47:13.149Z,50.65
2022-12-08T12:50:17.772Z,50.02
2022-12-08T12:52:54.593Z,50.74
2022-12-08T12:55:31.196Z,51.44
2022-12-08T12:58:01.896Z,51.90
2022-12-08T13:00:31.988Z,51.78
2022-12-08T13:03:02.380Z,52.08
2022-12-08T13:05:37.183Z,52.26
2022-12-08T13:08:19.576Z,52.25
2022-12-08T13:11:00.130Z,52.55
2022-12-08T13:13:31.288Z,52.47
2022-12-08T13:16:17.104Z,52.26
2022-12-08T13:18:52.406Z,52.50
2022-12-08T13:21:25.327Z,52.69
2022-12-08T13:24:17.886Z,53.59
2022-12-08T13:26:49.500Z,53.65
2022-12-08T13:29:23.139Z,54.17
2022-12-08T13:31:55.723Z,53.94
2022-12-08T13:34:34.219Z,53.24
2022-12-08T13:37:26.767Z,54.31
2022-12-08T13:40:04.038Z,54.30
2022-12-08T13:42:38.831Z,54.25
2022-12-08T13:45:33.455Z,53.64
2022-12-08T13:48:51.193Z,53.79
2022-12-08T13:53:22.519Z,54.14
2022-12-08T13:57:11.979Z,54.89
2022-12-08T13:59:47.500Z,55.10
2022-12-08T14:02:23.459Z,55.50
2022-12-08T14:05:34.567Z,55.52
2022-12-08T14:07:48.690Z,55.84
2022-12-08T14:10:23.419Z,56.68
2022-12-08T14:13:01.097Z,57.60
2022-12-08T14:15:38.239Z,57.71
2022-12-08T14:18:12.417Z,58.25
2022-12-08T14:21:19.047Z,58.76
2022-12-08T14:23:32.640Z,59.09
2022-12-08T14:26:02.727Z,59.30
2022-12-08T14:28:43.044Z,59.77
2022-12-08T14:31:15.061Z,59.17
2022-12-08T14:33:45.417Z,59.89
2022-12-08T14:36:16.880Z,58.47
2022-12-08T14:38:48.374Z,58.21
2022-12-08T14:41:18.476Z,58.00
2022-12-08T14:44:01.305Z,57.36
2022-12-08T14:46:31.966Z,57.22
2022-12-08T14:49:02.070Z,57.46
2022-12-08T14:51:34.754Z,57.18
2022-12-08T14:54:09.517Z,56.38
2022-12-08T14:56:42.175Z,56.39
2022-12-08T14:59:21.562Z,56.32
2022-12-08T15:01:53.939Z,55.88
2022-12-08T15:04:28.757Z,55.33
2022-12-08T15:07:05.546Z,55.59
2022-12-08T15:09:39.901Z,55.74
2022-12-08T15:12:27.110Z,56.48
2022-12-08T15:15:02.462Z,56.29
2022-12-08T15:17:37.227Z,56.59
2022-12-08T15:20:09.741Z,56.85
2022-12-08T15:22:39.870Z,56.95
2022-12-08T15:25:15.556Z,56.29
2022-12-08T15:27:50.711Z,55.95
2022-12-08T15:30:23.985Z,56.35
2022-12-08T15:32:56.086Z,56.80
2022-12-08T15:35:26.327Z,56.21
2022-12-08T15:37:56.732Z,56.06
2022-12-08T15:40:27.337Z,55.66
2022-12-08T15:42:57.441Z,55.38
2022-12-08T15:45:34.695Z,55.74
2022-12-08T15:48:04.987Z,56.06
2022-12-08T15:50:35.045Z,55.72
2022-12-08T15:53:05.285Z,55.50
2022-12-08T15:55:38.755Z,55.49
2022-12-08T16:01:02.768Z,55.21
2022-12-08T16:04:19.803Z,54.83
2022-12-08T16:07:12.938Z,54.36
2022-12-08T16:09:22.289Z,53.62
2022-12-08T16:12:07.303Z,53.63
2022-12-08T16:17:31.694Z,55.19
2022-12-08T16:20:04.101Z,52.94
2022-12-08T16:25:36.417Z,52.90
2022-12-08T16:28:52.241Z,52.12
2022-12-08T16:31:13.069Z,51.67
2022-12-08T16:33:46.522Z,51.85
2022-12-08T16:36:16.712Z,51.26
2022-12-08T16:38:46.774Z,51.51
2022-12-08T16:41:29.834Z,51.74
2022-12-08T16:44:04.138Z,52.10
2022-12-08T16:46:34.955Z,52.66
2022-12-08T16:49:10.710Z,53.35
2022-12-08T16:51:40.805Z,53.21
2022-12-08T16:54:10.823Z,53.96
2022-12-08T16:56:41.026Z,54.36
2022-12-08T16:59:11.113Z,54.02
2022-12-08T17:01:41.745Z,53.55
2022-12-08T17:04:30.989Z,53.24
2022-12-08T17:07:02.339Z,53.32
2022-12-08T17:09:34.404Z,53.67
2022-12-08T17:12:04.573Z,55.03
2022-12-08T17:14:37.388Z,56.12
2022-12-08T17:17:07.474Z,56.39
2022-12-08T17:19:40.599Z,56.46
2022-12-08T17:22:10.638Z,56.63
2022-12-08T17:24:40.864Z,56.90
2022-12-08T17:27:11.495Z,57.77
2022-12-08T17:29:41.652Z,58.58
2022-12-08T17:32:11.942Z,59.42
2022-12-08T17:34:44.884Z,59.71
2022-12-08T17:37:15.403Z,60.20
2022-12-08T17:39:45.904Z,60.49
2022-12-08T17:42:15.988Z,60.19
2022-12-08T17:44:46.808Z,59.88
2022-12-08T17:47:16.835Z,60.24
2022-12-08T17:49:49.561Z,60.27
2022-12-08T17:52:19.754Z,60.75
2022-12-08T17:54:49.849Z,60.77
2022-12-08T17:57:19.928Z,61.13
2022-12-08T17:59:50.085Z,60.77
2022-12-08T18:02:21.218Z,60.50
2022-12-08T18:04:53.966Z,60.52
2022-12-08T18:07:24.020Z,60.41
2022-12-08T18:09:54.588Z,60.79
2022-12-08T18:12:24.863Z,59.87
2022-12-08T18:14:55.154Z,60.08
2022-12-08T18:17:25.280Z,59.87
2022-12-08T18:19:58.266Z,60.33
2022-12-08T18:22:28.367Z,60.43
2022-12-08T18:24:58.399Z,60.21
2022-12-08T18:27:28.453Z,60.34
2022-12-08T18:29:58.524Z,60.38
2022-12-08T18:32:31.762Z,60.46
2022-12-08T18:35:05.068Z,60.02
2022-12-08T18:37:35.185Z,60.37
2022-12-08T18:40:06.822Z,60.63
2022-12-08T18:42:42.616Z,60.13
2022-12-08T18:45:16.782Z,60.14
2022-12-08T18:47:52.034Z,60.05
2022-12-08T18:50:24.734Z,60.45
2022-12-08T18:52:54.822Z,59.76
2022-12-08T18:55:24.917Z,60.25
2022-12-08T18:57:55.027Z,60.22
2022-12-08T19:00:25.194Z,60.32
2022-12-08T19:02:58.014Z,60.56
2022-12-08T19:05:32.837Z,61.08
2022-12-08T19:08:06.301Z,61.39
2022-12-08T19:10:40.830Z,61.68
2022-12-08T19:13:11.077Z,61.40
2022-12-08T19:15:41.180Z,61.94
2022-12-08T19:18:11.437Z,61.30
2022-12-08T19:20:46.555Z,61.29
2022-12-08T19:23:17.061Z,61.33
2022-12-08T19:25:47.254Z,61.43
2022-12-08T19:28:17.393Z,61.75
2022-12-08T19:30:47.606Z,61.88
2022-12-08T19:33:17.753Z,61.87
2022-12-08T19:35:52.769Z,62.02
2022-12-08T19:38:22.994Z,62.16
2022-12-08T19:41:05.550Z,62.23
2022-12-08T19:43:48.188Z,62.50
2022-12-08T19:46:18.430Z,62.63
2022-12-08T19:48:48.763Z,62.54
2022-12-08T19:51:26.767Z,62.65
2022-12-08T19:53:56.765Z,62.87
2022-12-08T19:56:26.868Z,62.81
2022-12-08T19:58:57.178Z,62.91
2022-12-08T20:01:30.558Z,62.97
2022-12-08T20:04:00.714Z,63.42
2022-12-08T20:06:33.754Z,63.69
2022-12-08T20:09:05.393Z,63.75
2022-12-08T20:11:35.555Z,64.32
2022-12-08T20:14:05.590Z,64.53
2022-12-08T20:16:36.430Z,64.95
2022-12-08T20:19:07.216Z,65.07
2022-12-08T20:21:41.679Z,65.73
2022-12-08T20:24:11.956Z,66.12
2022-12-08T20:26:42.104Z,66.70
2022-12-08T20:29:12.557Z,66.96
2022-12-08T20:31:42.666Z,66.57
2022-12-08T20:34:16.914Z,66.22
2022-12-08T20:36:49.498Z,66.32
2022-12-08T20:39:21.476Z,66.22
2022-12-08T20:41:52.261Z,66.88
2022-12-08T20:44:22.376Z,67.19
2022-12-08T20:46:52.544Z,68.21
2022-12-08T20:49:22.679Z,68.22
2022-12-08T20:51:55.401Z,68.17
2022-12-08T20:54:25.760Z,68.41
2022-12-08T20:56:56.108Z,68.28
2022-12-08T20:59:26.532Z,68.71
2022-12-08T21:01:57.209Z,69.00
2022-12-08T21:04:27.578Z,69.38
2022-12-08T21:07:00.703Z,69.29
2022-12-08T21:09:31.046Z,69.71
2022-12-08T21:12:01.350Z,69.84
2022-12-08T21:14:31.538Z,69.96
2022-12-08T21:17:01.895Z,69.96
2022-12-08T21:19:32.188Z,69.27
2022-12-08T21:22:05.045Z,68.50
2022-12-08T21:24:35.429Z,68.37
2022-12-08T21:27:05.837Z,68.86
2022-12-08T21:29:35.934Z,69.08
2022-12-08T21:32:06.597Z,69.54
2022-12-08T21:34:37.355Z,69.18
2022-12-08T21:37:10.044Z,69.27
2022-12-08T21:39:40.376Z,69.60
2022-12-08T21:42:23.035Z,69.81
2022-12-08T21:44:53.981Z,69.85
2022-12-08T21:47:24.273Z,69.97
2022-12-08T21:49:54.490Z,69.64
2022-12-08T21:52:29.793Z,69.54
2022-12-08T21:54:59.989Z,69.36
2022-12-08T21:57:30.113Z,69.47
2022-12-08T22:00:01.677Z,69.70
2022-12-08T22:02:32.406Z,69.37
2022-12-08T22:05:02.572Z,69.83
2022-12-08T22:07:35.675Z,69.75
2022-12-08T22:10:07.751Z,69.98
2022-12-08T22:12:39.586Z,69.83
2022-12-08T22:15:11.948Z,69.93
2022-12-08T22:17:44.524Z,70.07
2022-12-08T22:20:17.315Z,69.73
2022-12-08T22:22:49.974Z,70.01
2022-12-08T22:25:20.681Z,70.05
2022-12-08T22:27:50.881Z,70.55
2022-12-08T22:30:21.537Z,70.41
2022-12-08T22:32:51.637Z,70.40
2022-12-08T22:35:21.875Z,70.63
2022-12-08T22:37:57.945Z,70.43
2022-12-08T22:40:27.952Z,70.80
2022-12-08T22:42:58.001Z,70.64
2022-12-08T22:45:28.205Z,70.58
2022-12-08T22:47:58.334Z,70.16
2022-12-08T22:50:28.364Z,70.72
2022-12-08T22:53:01.044Z,70.73
2022-12-08T22:55:31.281Z,70.90
2022-12-08T22:58:01.359Z,70.67
2022-12-08T23:00:31.995Z,70.48
2022-12-08T23:03:02.374Z,70.70
2022-12-08T23:05:35.346Z,70.72
2022-12-08T23:08:10.011Z,70.69
2022-12-08T23:10:42.516Z,70.55
2022-12-08T23:13:13.341Z,71.07
2022-12-08T23:15:44.386Z,70.76
2022-12-08T23:18:17.088Z,71.16
2022-12-08T23:20:48.245Z,71.35
2022-12-08T23:23:21.200Z,71.06
2022-12-08T23:25:51.473Z,71.44
2022-12-08T23:28:21.501Z,70.85
2022-12-08T23:30:51.970Z,70.96
2022-12-08T23:33:22.556Z,71.17
2022-12-08T23:35:59.575Z,70.60
2022-12-08T23:38:32.179Z,70.50
2022-12-08T23:41:03.801Z,70.93
2022-12-08T23:43:34.105Z,71.18
2022-12-08T23:46:04.796Z,71.31
2022-12-08T23:48:35.315Z,71.72
2022-12-08T23:51:05.501Z,71.72
2022-12-08T23:53:38.716Z,71.97
2022-12-08T23:56:12.310Z,72.17
2022-12-08T23:58:43.177Z,72.61
